KDTN/DTN METAR and TAF weather

Enter ICAO airport designator
Station Type Date Time Source
KDTN METAR 2022/05/24 10:53 UTC NOAA

KDTN 241053Z AUTO 10008KT 10SM OVC010 21/18 A2988 RMK AO2 SLP117 T02060183


Station Type Date Time Source
KDTN Decoded METAR 2022/05/24 10:53 UTC NOAA

SHREVEPORT DOWNTOWN AIRPORT, LA, United States (KDTN) 32-32N 093-45W 53M
May 24, 2022 - 06:53 AM EDT / 2022.05.24 1053 UTC
Wind: from the E (100 degrees) at 9 MPH (8 KT):0
Visibility: 10 mile(s):0
Sky conditions: overcast
Temperature: 69.1 F (20.6 C)
Dew Point: 64.9 F (18.3 C)
Relative Humidity: 86%
Pressure (altimeter): 29.88 in. Hg (1011 hPa)
ob: KDTN 241053Z AUTO 10008KT 10SM OVC010 21/18 A2988 RMK AO2 SLP117 T02060183
cycle: 11

Station Type Date Time Source
KDTN TAF UTC NOAA

Error!

Example: see airport list